Time;durP1;ratioP1;P1;durP2;ratioP2;P2;SDS_P1;SDS_P2;PMS_P1;PMS_P2;Temp;Humidity;BMP_temperature;BMP_pressure;BME280_temperature;BME280_humidity;BME280_pressure;Samples;Min_cycle;Max_cycle;Signal;HPM_P1;HPM_P2
2021/01/19 00:01:50;;;;;;;61.13;26.20;;;;;;;-9.81;96.22;101917.63;5063568;28;20017;-77
2021/01/19 00:04:16;;;;;;;61.95;25.48;;;;;;;-9.87;97.28;101918.63;5069250;28;20517;-78
2021/01/19 00:06:41;;;;;;;60.65;24.17;;;;;;;-10.04;98.14;101924.28;5067774;28;20480;-77
2021/01/19 00:09:06;;;;;;;49.13;20.33;;;;;;;-10.09;98.22;101922.75;5064920;28;20464;-77
2021/01/19 00:11:32;;;;;;;60.25;27.17;;;;;;;-9.98;98.22;101921.53;5063035;28;20031;-77
2021/01/19 00:13:57;;;;;;;89.40;43.92;;;;;;;-9.91;97.97;101923.03;5063349;28;20087;-77
2021/01/19 00:16:23;;;;;;;64.47;29.55;;;;;;;-10.02;97.90;101926.81;5069084;28;20021;-77
2021/01/19 00:18:48;;;;;;;62.00;26.67;;;;;;;-10.05;97.92;101925.16;5063189;28;20111;-77
2021/01/19 00:21:14;;;;;;;65.68;25.15;;;;;;;-9.96;97.81;101931.78;5064414;28;20094;-77
2021/01/19 00:23:39;;;;;;;59.25;24.42;;;;;;;-9.94;97.96;101928.28;5066615;28;20450;-77
2021/01/19 00:26:04;;;;;;;56.63;24.38;;;;;;;-10.38;97.96;101925.28;5060840;28;20040;-77
2021/01/19 00:28:30;;;;;;;72.13;28.98;;;;;;;-10.29;98.72;101928.47;5068741;28;20024;-78
2021/01/19 00:30:55;;;;;;;83.47;35.78;;;;;;;-10.60;98.57;101929.28;5060432;28;20032;-77
2021/01/19 00:33:21;;;;;;;79.40;33.40;;;;;;;-10.48;99.62;101934.09;5060761;28;20017;-77
2021/01/19 00:35:47;;;;;;;68.47;30.00;;;;;;;-10.39;98.87;101928.72;5066252;28;20017;-77
2021/01/19 00:38:12;;;;;;;72.07;31.83;;;;;;;-10.32;99.10;101934.53;5064503;28;20024;-77
2021/01/19 00:40:38;;;;;;;63.78;27.38;;;;;;;-10.23;99.00;101933.41;5063296;28;20021;-77
2021/01/19 00:43:03;;;;;;;64.28;28.90;;;;;;;-10.73;99.24;101926.22;5063426;28;20522;-77
2021/01/19 00:45:29;;;;;;;65.75;29.33;;;;;;;-10.44;99.54;101922.88;5062757;28;20031;-77
2021/01/19 00:47:54;;;;;;;70.28;29.83;;;;;;;-10.68;99.20;101926.94;5062168;28;20039;-77
2021/01/19 00:50:20;;;;;;;77.00;30.65;;;;;;;-10.47;99.95;101919.53;5060287;28;20025;-77
2021/01/19 00:52:45;;;;;;;62.92;28.58;;;;;;;-10.25;99.84;101914.63;5066588;28;20040;-77
2021/01/19 00:55:13;;;;;;;58.00;25.42;;;;;;;-9.96;98.98;101917.19;5062663;28;20496;-77
2021/01/19 00:57:38;;;;;;;55.70;25.08;;;;;;;-9.90;98.55;101921.31;5064606;28;20470;-77
2021/01/19 01:00:08;;;;;;;51.78;20.10;;;;;;;-9.20;98.55;101920.84;5059530;28;20116;-77
2021/01/19 01:02:34;;;;;;;43.60;20.02;;;;;;;-8.53;95.69;101922.91;5066252;28;20346;-77
2021/01/19 01:05:01;;;;;;;46.63;20.20;;;;;;;-9.19;95.13;101927.69;5063616;28;20043;-77
2021/01/19 01:07:41;;;;;;;64.07;26.98;;;;;;;-9.36;96.07;101922.25;5065035;28;20029;-77
2021/01/19 01:10:12;;;;;;;76.25;33.67;;;;;;;-9.43;96.07;101921.59;5060012;28;20025;-77
2021/01/19 01:12:41;;;;;;;55.50;22.08;;;;;;;-8.38;95.94;101927.50;5066947;28;20029;-77
2021/01/19 01:15:08;;;;;;;49.47;22.25;;;;;;;-8.85;95.65;101924.84;5063601;28;20409;-77
2021/01/19 01:17:38;;;;;;;47.28;20.90;;;;;;;-8.46;95.50;101923.53;5062624;28;20039;-77
2021/01/19 01:20:08;;;;;;;53.45;24.55;;;;;;;-8.68;94.98;101928.56;5062054;28;20083;-78
2021/01/19 01:22:46;;;;;;;44.55;18.65;;;;;;;-7.99;95.29;101932.06;5065926;28;20027;-77
2021/01/19 01:25:16;;;;;;;37.75;17.35;;;;;;;-7.93;94.07;101931.00;5066097;28;20024;-77
2021/01/19 01:27:44;;;;;;;39.30;19.23;;;;;;;-7.64;93.67;101930.75;5062917;28;20020;-77
2021/01/19 01:30:11;;;;;;;37.55;16.15;;;;;;;-7.71;93.71;101925.91;5060713;28;20108;-78
2021/01/19 01:32:54;;;;;;;38.22;15.52;;;;;;;-7.78;93.81;101925.28;5060603;28;20021;-77
2021/01/19 01:35:23;;;;;;;43.35;18.25;;;;;;;-7.56;92.88;101916.69;5062107;28;20410;-77
2021/01/19 01:37:54;;;;;;;39.53;17.02;;;;;;;-7.60;93.20;101921.97;5066513;28;20401;-77
2021/01/19 01:40:27;;;;;;;34.63;16.48;;;;;;;-7.67;92.90;101922.28;5066838;28;20381;-77
2021/01/19 01:42:56;;;;;;;40.88;17.27;;;;;;;-7.74;93.66;101920.88;5061653;28;20411;-77
2021/01/19 01:45:24;;;;;;;36.42;16.10;;;;;;;-7.69;93.34;101929.25;5064663;28;20134;-78
2021/01/19 01:47:50;;;;;;;39.63;17.80;;;;;;;-7.56;93.20;101919.28;5060579;28;20131;-77
2021/01/19 01:50:17;;;;;;;44.90;19.38;;;;;;;-8.26;94.31;101921.03;5061842;28;20032;-77
2021/01/19 01:52:43;;;;;;;58.40;27.27;;;;;;;-8.66;95.55;101919.06;5060249;28;20037;-77
2021/01/19 01:55:09;;;;;;;85.22;40.05;;;;;;;-9.04;97.01;101918.63;5059613;28;20448;-77
2021/01/19 01:57:37;;;;;;;67.95;29.45;;;;;;;-9.30;97.18;101924.63;5063969;28;20039;-77
2021/01/19 02:00:04;;;;;;;61.92;28.25;;;;;;;-9.45;97.79;101915.66;5064724;28;20108;-77
2021/01/19 02:02:29;;;;;;;57.67;25.63;;;;;;;-9.62;98.35;101912.75;5067544;28;20071;-78
2021/01/19 02:04:55;;;;;;;53.28;22.02;;;;;;;-9.70;98.66;101919.00;5067493;28;20492;-77
2021/01/19 02:07:23;;;;;;;61.58;23.50;;;;;;;-9.66;99.50;101916.31;5062274;28;20434;-77
2021/01/19 02:09:57;;;;;;;54.67;23.77;;;;;;;-9.81;99.41;101907.34;5066761;28;20021;-78
2021/01/19 02:12:35;;;;;;;66.40;27.75;;;;;;;-10.17;99.64;101912.66;5063306;28;20115;-77
2021/01/19 02:15:05;;;;;;;56.30;24.05;;;;;;;-10.42;100.00;101903.13;5063683;28;20033;-77
2021/01/19 02:17:46;;;;;;;62.15;26.15;;;;;;;-10.41;100.00;101907.38;5057419;28;20024;-77
2021/01/19 02:20:29;;;;;;;59.47;25.73;;;;;;;-10.73;100.00;101909.97;5062405;28;20033;-77
2021/01/19 02:23:23;;;;;;;62.33;27.77;;;;;;;-10.66;100.00;101912.31;5061567;28;20040;-78
2021/01/19 02:25:49;;;;;;;66.70;30.15;;;;;;;-10.19;100.00;101912.72;5061712;28;20373;-77
2021/01/19 02:28:37;;;;;;;61.50;26.67;;;;;;;-10.33;100.00;101914.03;5060371;28;20029;-77
2021/01/19 02:31:22;;;;;;;66.97;29.75;;;;;;;-10.59;100.00;101913.00;5060403;28;20035;-77
2021/01/19 02:34:03;;;;;;;67.50;31.30;;;;;;;-10.67;100.00;101914.94;5059903;28;20385;-77
2021/01/19 02:36:45;;;;;;;69.07;31.60;;;;;;;-10.42;100.00;101913.38;5060270;28;20179;-78
2021/01/19 02:39:15;;;;;;;68.80;30.58;;;;;;;-10.54;100.00;101910.31;5061925;28;20020;-78
2021/01/19 02:41:43;;;;;;;65.88;30.63;;;;;;;-10.64;100.00;101909.72;5061475;28;20097;-77
2021/01/19 02:44:20;;;;;;;67.57;31.17;;;;;;;-10.67;100.00;101900.38;5056679;28;20552;-77
2021/01/19 02:46:59;;;;;;;61.80;27.63;;;;;;;-10.58;100.00;101904.44;5061168;28;20067;-77
2021/01/19 02:49:25;;;;;;;65.07;27.52;;;;;;;-10.38;100.00;101897.03;5052423;28;20119;-77
2021/01/19 02:51:53;;;;;;;67.80;29.60;;;;;;;-10.35;100.00;101906.34;5060022;28;20450;-77
2021/01/19 02:54:19;;;;;;;62.25;27.35;;;;;;;-10.32;100.00;101906.25;5065366;28;20024;-77
2021/01/19 02:57:04;;;;;;;59.53;25.73;;;;;;;-10.69;100.00;101898.72;5052113;28;20024;-77
2021/01/19 02:59:54;;;;;;;73.90;34.45;;;;;;;-10.54;100.00;101897.47;5064020;28;20020;-78
2021/01/19 03:02:22;;;;;;;65.10;28.88;;;;;;;-10.58;100.00;101898.47;5061630;28;20053;-78
2021/01/19 03:04:48;;;;;;;69.78;31.38;;;;;;;-10.56;100.00;101889.81;5071202;28;20111;-76
2021/01/19 03:07:15;;;;;;;71.20;31.75;;;;;;;-10.54;100.00;101889.78;5068657;28;20048;-77
2021/01/19 03:09:42;;;;;;;64.45;27.63;;;;;;;-10.71;100.00;101893.66;5056986;28;20025;-77
2021/01/19 03:12:15;;;;;;;65.80;28.70;;;;;;;-11.28;100.00;101894.25;5062151;28;20094;-77
2021/01/19 03:14:41;;;;;;;64.22;28.05;;;;;;;-11.13;100.00;101898.16;5069042;28;20029;-77
2021/01/19 03:17:09;;;;;;;65.65;27.52;;;;;;;-11.24;100.00;101897.59;5061917;28;20444;-77
2021/01/19 03:19:37;;;;;;;69.63;29.33;;;;;;;-11.43;100.00;101902.31;5062490;28;20024;-77
2021/01/19 03:22:03;;;;;;;117.03;53.60;;;;;;;-11.38;100.00;101911.56;5063531;28;20031;-77
2021/01/19 03:24:29;;;;;;;98.10;42.95;;;;;;;-11.21;100.00;101893.22;5067459;28;20021;-77
2021/01/19 03:26:54;;;;;;;96.35;40.53;;;;;;;-11.17;100.00;101894.81;5067748;28;20029;-77
2021/01/19 03:29:20;;;;;;;85.60;38.75;;;;;;;-11.28;100.00;101889.13;5072244;28;20032;-78
2021/01/19 03:31:45;;;;;;;94.38;37.85;;;;;;;-11.43;100.00;101898.03;5063717;28;20031;-77
2021/01/19 03:34:11;;;;;;;83.53;33.70;;;;;;;-11.45;100.00;101898.94;5065547;28;20478;-77
2021/01/19 03:36:36;;;;;;;72.45;32.60;;;;;;;-11.35;100.00;101905.53;5070039;28;20509;-77
2021/01/19 03:39:03;;;;;;;83.80;34.92;;;;;;;-11.41;100.00;101897.97;5056230;28;20102;-77
2021/01/19 03:41:28;;;;;;;64.57;28.17;;;;;;;-11.88;100.00;101908.47;5061078;28;20053;-77
2021/01/19 03:43:55;;;;;;;71.68;30.15;;;;;;;-11.64;100.00;101903.66;5061914;28;20017;-77
2021/01/19 03:46:20;;;;;;;65.97;28.83;;;;;;;-11.69;100.00;101908.88;5066635;28;20123;-78
2021/01/19 03:48:46;;;;;;;57.78;24.70;;;;;;;-11.79;100.00;101910.81;5066819;28;20507;-77
2021/01/19 03:51:11;;;;;;;59.67;26.58;;;;;;;-11.69;100.00;101919.13;5066080;28;20455;-77
2021/01/19 03:53:37;;;;;;;58.45;26.13;;;;;;;-11.68;100.00;101922.53;5061178;28;20020;-77
2021/01/19 03:56:03;;;;;;;61.90;26.58;;;;;;;-11.73;100.00;101921.81;5062462;28;20415;-77
2021/01/19 03:58:29;;;;;;;66.63;28.52;;;;;;;-11.84;100.00;101928.00;5063444;28;20104;-77
2021/01/19 04:00:55;;;;;;;69.13;28.40;;;;;;;-11.63;100.00;101928.41;5060632;28;20370;-77
2021/01/19 04:03:20;;;;;;;63.80;29.55;;;;;;;-11.90;100.00;101927.31;5058769;28;20032;-77
2021/01/19 04:05:46;;;;;;;81.88;35.03;;;;;;;-12.06;100.00;101930.19;5067710;28;20020;-77
2021/01/19 04:08:11;;;;;;;74.57;31.08;;;;;;;-12.11;100.00;101934.56;5060899;28;20027;-77
2021/01/19 04:10:38;;;;;;;71.85;31.52;;;;;;;-12.26;100.00;101929.75;5064485;28;20028;-78
2021/01/19 04:13:03;;;;;;;73.65;31.98;;;;;;;-12.33;100.00;101930.75;5057896;28;20111;-77
2021/01/19 04:15:29;;;;;;;76.25;31.95;;;;;;;-12.15;100.00;101937.25;5057248;28;20043;-77
2021/01/19 04:17:55;;;;;;;75.95;31.55;;;;;;;-12.09;100.00;101940.50;5063569;28;20025;-77
2021/01/19 04:20:20;;;;;;;74.35;33.45;;;;;;;-12.81;100.00;101930.78;5062773;28;20044;-77
2021/01/19 04:22:46;;;;;;;71.47;32.53;;;;;;;-12.25;100.00;101941.72;5069627;28;20012;-78
2021/01/19 04:25:11;;;;;;;83.13;35.20;;;;;;;-12.43;100.00;101932.66;5057424;28;20478;-78
2021/01/19 04:27:37;;;;;;;84.53;35.03;;;;;;;-12.43;100.00;101937.78;5054320;28;20025;-77
2021/01/19 04:30:07;;;;;;;79.75;33.25;;;;;;;-12.22;100.00;101939.09;5070794;28;20389;-76
2021/01/19 04:32:37;;;;;;;81.03;35.90;;;;;;;-12.05;100.00;101939.56;5064974;28;20543;-77
2021/01/19 04:35:04;;;;;;;71.75;31.13;;;;;;;-12.14;100.00;101944.88;5060294;28;20086;-78
2021/01/19 04:37:29;;;;;;;65.82;31.67;;;;;;;-12.11;100.00;101941.41;5068523;28;20090;-77
2021/01/19 04:39:55;;;;;;;75.78;33.17;;;;;;;-12.17;100.00;101937.25;5061752;28;20362;-77
2021/01/19 04:42:20;;;;;;;77.65;33.47;;;;;;;-12.18;100.00;101940.69;5058756;28;20028;-76
2021/01/19 04:44:48;;;;;;;70.00;31.38;;;;;;;-12.17;100.00;101941.53;5055488;28;20079;-77
2021/01/19 04:47:15;;;;;;;72.90;31.73;;;;;;;-12.59;100.00;101936.38;5056414;28;20032;-76
2021/01/19 04:49:47;;;;;;;72.07;30.90;;;;;;;-12.40;100.00;101937.72;5057028;28;20056;-75
2021/01/19 04:52:17;;;;;;;;;;;;;;;-12.31;100.00;101939.25;5063192;28;20048;-77
2021/01/19 04:55:12;;;;;;;64.72;27.58;;;;;;;-12.17;100.00;101936.41;5055850;28;19959;-76
2021/01/19 04:57:42;;;;;;;66.80;27.52;;;;;;;-12.16;100.00;101941.53;5062326;28;20488;-77
2021/01/19 05:00:13;;;;;;;60.70;27.55;;;;;;;-12.28;100.00;101946.88;5058030;28;20033;-77
2021/01/19 05:03:06;;;;;;;58.90;27.70;;;;;;;-12.49;100.00;101943.03;5054064;28;20094;-77
2021/01/19 05:05:38;;;;;;;65.60;28.90;;;;;;;-12.38;100.00;101953.88;5056271;28;20071;-76
2021/01/19 05:08:18;;;;;;;66.65;28.00;;;;;;;-12.40;100.00;101952.22;5054615;28;20025;-77
2021/01/19 05:10:55;;;;;;;96.22;39.60;;;;;;;-12.39;100.00;101952.19;5055262;28;20512;-77
2021/01/19 05:13:49;;;;;;;128.45;53.85;;;;;;;-12.63;100.00;101948.38;5061227;28;20029;-77
2021/01/19 05:16:17;;;;;;;201.48;82.55;;;;;;;-12.61;100.00;101956.03;5061596;28;20045;-77
2021/01/19 05:18:43;;;;;;;204.38;92.15;;;;;;;-12.93;100.00;101950.59;5065447;28;21485;-77
2021/01/19 05:21:09;;;;;;;177.65;73.63;;;;;;;-12.52;100.00;101951.59;5070662;28;20457;-77
2021/01/19 05:23:34;;;;;;;171.45;72.03;;;;;;;-12.41;100.00;101955.66;5063217;28;20028;-77
2021/01/19 05:26:03;;;;;;;143.20;59.92;;;;;;;-12.42;100.00;101965.06;5067211;28;20028;-77
2021/01/19 05:28:40;;;;;;;131.95;55.63;;;;;;;-12.57;100.00;101965.34;5063396;28;20056;-77
2021/01/19 05:31:17;;;;;;;110.97;47.03;;;;;;;-12.55;100.00;101963.63;5065296;28;20100;-78
2021/01/19 05:33:55;;;;;;;124.10;53.70;;;;;;;-12.49;100.00;101963.50;5058530;28;20037;-77
2021/01/19 05:36:40;;;;;;;87.03;36.33;;;;;;;-12.71;100.00;101970.69;5056927;28;20029;-77
2021/01/19 05:39:27;;;;;;;69.63;30.60;;;;;;;-12.84;100.00;101966.66;5066629;28;20029;-77
2021/01/19 05:41:54;;;;;;;80.00;34.05;;;;;;;-12.57;100.00;101966.19;5067371;28;20056;-77
2021/01/19 05:44:24;;;;;;;94.78;41.42;;;;;;;-12.78;100.00;101956.34;5066834;28;20483;-77
2021/01/19 05:46:59;;;;;;;180.80;85.55;;;;;;;-12.89;100.00;101959.06;5055176;28;20124;-77
2021/01/19 05:49:27;;;;;;;172.07;73.88;;;;;;;-12.78;100.00;101966.56;5064674;28;20036;-77
2021/01/19 05:52:28;;;;;;;138.75;62.97;;;;;;;-12.92;100.00;101970.22;5056988;28;20047;-77
2021/01/19 05:54:56;;;;;;;153.43;66.60;;;;;;;-12.89;100.00;101973.56;5062759;28;20533;-77
2021/01/19 05:57:24;;;;;;;192.43;86.07;;;;;;;-12.48;100.00;101963.47;5055728;28;20024;-77
2021/01/19 05:59:57;;;;;;;175.48;77.20;;;;;;;-12.41;100.00;101969.31;5060130;28;20021;-77
2021/01/19 06:02:38;;;;;;;331.42;122.95;;;;;;;-12.40;99.64;101970.13;5064295;28;20012;-77
2021/01/19 06:05:14;;;;;;;174.75;71.43;;;;;;;-12.56;99.59;101967.88;5064721;28;20028;-77
2021/01/19 06:07:43;;;;;;;191.10;83.70;;;;;;;-12.42;99.79;101969.34;5054161;28;20025;-77
2021/01/19 06:10:20;;;;;;;198.75;89.53;;;;;;;-12.87;99.10;101975.25;5059391;28;20280;-77
2021/01/19 06:12:45;;;;;;;265.85;127.57;;;;;;;-12.41;100.00;101971.03;5049175;28;20036;-77
2021/01/19 06:15:11;;;;;;;211.73;100.80;;;;;;;-12.30;100.00;101977.63;5064008;28;20429;-78
2021/01/19 06:17:37;;;;;;;265.17;123.90;;;;;;;-12.37;99.90;101976.06;5063155;28;20480;-77
2021/01/19 06:20:05;;;;;;;212.75;97.47;;;;;;;-11.97;99.75;101984.72;5063802;28;20111;-77
2021/01/19 06:22:31;;;;;;;220.02;99.50;;;;;;;-11.66;99.68;101985.72;5059100;28;20013;-77
2021/01/19 06:25:01;;;;;;;181.30;83.53;;;;;;;-11.47;98.44;101986.16;5056886;28;20446;-77
2021/01/19 06:27:28;;;;;;;182.77;84.32;;;;;;;-11.31;97.34;101991.81;5057010;28;20020;-77
2021/01/19 06:29:59;;;;;;;327.75;134.18;;;;;;;-11.12;95.87;101989.66;5064686;28;20024;-77
2021/01/19 06:32:31;;;;;;;386.33;142.45;;;;;;;-10.96;95.35;101982.41;5064104;28;20453;-77
2021/01/19 06:35:08;;;;;;;345.55;129.63;;;;;;;-10.52;95.72;101991.59;5055214;28;20107;-77
2021/01/19 06:37:34;;;;;;;189.38;80.60;;;;;;;-10.23;94.97;101995.06;5055614;28;20040;-77
2021/01/19 06:40:08;;;;;;;179.05;77.18;;;;;;;-10.23;94.36;102001.03;5053467;28;20041;-77
2021/01/19 06:42:35;;;;;;;195.48;85.55;;;;;;;-9.81;94.02;102003.31;5062354;28;20070;-77
2021/01/19 06:45:07;;;;;;;221.00;93.97;;;;;;;-9.47;92.59;102000.63;5069151;28;20491;-77
2021/01/19 06:47:50;;;;;;;304.00;140.88;;;;;;;-8.82;91.33;102004.59;5065930;28;20012;-77
2021/01/19 06:50:36;;;;;;;368.75;163.77;;;;;;;-8.72;89.82;101994.81;5062203;28;20124;-77
2021/01/19 06:53:29;;;;;;;332.80;137.02;;;;;;;-8.57;88.78;101998.63;5055089;28;20045;-77
2021/01/19 06:55:56;;;;;;;448.25;177.80;;;;;;;-8.50;88.69;102004.41;5056550;28;20051;-77
2021/01/19 06:58:40;;;;;;;406.77;141.93;;;;;;;-8.00;87.69;102005.19;5055841;28;20041;-77
2021/01/19 07:01:13;;;;;;;388.60;148.75;;;;;;;-7.67;85.98;102017.75;5069133;28;20120;-77
2021/01/19 07:03:41;;;;;;;408.23;162.68;;;;;;;-7.62;85.17;102021.88;5063533;28;20091;-77
2021/01/19 07:06:08;;;;;;;406.13;160.05;;;;;;;-7.87;85.17;102010.75;5057315;28;20044;-77
2021/01/19 07:09:20;;;;;;;440.42;178.30;;;;;;;-7.49;84.81;102018.81;5061453;28;20042;-77
2021/01/19 07:12:05;;;;;;;447.97;162.37;;;;;;;-6.58;83.14;102032.44;5061554;28;20174;-77
2021/01/19 07:14:41;;;;;;;473.55;211.23;;;;;;;-7.03;82.21;102032.53;5053964;28;20054;-77
2021/01/19 07:17:10;;;;;;;365.73;143.73;;;;;;;-6.83;84.18;102031.75;5063257;28;20032;-77
2021/01/19 07:19:43;;;;;;;293.35;112.75;;;;;;;-5.59;81.59;102042.78;5053097;28;20028;-77
2021/01/19 07:22:09;;;;;;;257.45;93.13;;;;;;;-5.75;82.88;102036.59;5060372;28;20485;-77
2021/01/19 07:24:46;;;;;;;326.85;123.20;;;;;;;-5.83;81.50;102034.34;5060332;28;20029;-77
2021/01/19 07:27:15;;;;;;;218.07;89.28;;;;;;;-5.73;80.92;102041.72;5052661;28;20090;-81
2021/01/19 07:29:41;;;;;;;84.55;28.30;;;;;;;1.08;89.32;102045.19;5057078;28;20392;-76
2021/01/19 07:32:14;;;;;;;112.88;45.45;;;;;;;2.01;80.40;102045.22;5057412;28;20374;-77
2021/01/19 07:34:40;;;;;;;;;;;;;;;2.10;78.72;102050.72;5061703;28;20481;-77
2021/01/19 07:37:06;;;;;;;33.72;16.48;;;;;;;-3.40;71.60;102044.03;5060225;28;19913;-76
2021/01/19 07:39:36;;;;;;;50.58;26.20;;;;;;;-3.75;77.84;102040.72;5067491;28;20100;-76
2021/01/19 07:42:17;;;;;;;38.00;16.58;;;;;;;-4.17;83.95;102032.50;5071089;28;20469;-75
2021/01/19 07:44:57;;;;;;;39.20;18.92;;;;;;;-6.19;81.26;102033.41;5071735;28;20024;-75
2021/01/19 07:47:33;;;;;;;36.13;16.73;;;;;;;-5.99;81.01;102041.13;5066563;28;20028;-75
2021/01/19 07:50:13;;;;;;;38.05;16.70;;;;;;;-4.57;77.70;102044.00;5059403;28;20021;-76
2021/01/19 07:52:41;;;;;;;37.08;17.13;;;;;;;-4.97;80.27;102039.94;5054257;28;20037;-75
2021/01/19 07:55:14;;;;;;;34.53;16.83;;;;;;;-4.81;80.41;102045.22;5060815;28;20036;-76
2021/01/19 07:57:43;;;;;;;37.13;15.07;;;;;;;-4.71;79.54;102049.88;5067524;28;20032;-76
2021/01/19 08:00:09;;;;;;;38.22;17.45;;;;;;;-5.37;80.41;102050.41;5060633;28;20416;-75
2021/01/19 08:02:35;;;;;;;36.05;16.15;;;;;;;-5.32;79.46;102052.81;5072846;28;20033;-76
2021/01/19 08:05:01;;;;;;;51.45;20.33;;;;;;;-3.96;79.11;102047.88;5072869;28;20393;-75
2021/01/19 08:07:38;;;;;;;43.95;19.10;;;;;;;-3.51;77.74;102049.81;5072839;28;20110;-75
2021/01/19 08:10:19;;;;;;;27.35;12.52;;;;;;;-4.47;74.98;102059.97;5072645;28;20115;-76
2021/01/19 08:12:47;;;;;;;28.35;12.68;;;;;;;-4.44;76.55;102052.06;5058281;28;20035;-75
2021/01/19 08:15:17;;;;;;;30.80;15.50;;;;;;;-4.39;79.50;102058.69;5070521;28;20484;-76
2021/01/19 08:17:49;;;;;;;27.63;14.07;;;;;;;-3.88;75.79;102050.91;5060842;28;20029;-75
2021/01/19 08:20:23;;;;;;;33.20;14.07;;;;;;;-2.87;76.42;102052.41;5060841;28;20469;-75
2021/01/19 08:22:48;;;;;;;36.05;16.13;;;;;;;-3.84;77.09;102051.56;5078578;28;20017;-76
2021/01/19 08:25:26;;;;;;;39.65;17.42;;;;;;;-4.49;75.26;102052.25;5063995;28;20379;-75
2021/01/19 08:27:52;;;;;;;50.25;21.23;;;;;;;-5.42;79.83;102052.34;5081399;28;20154;-75
2021/01/19 08:30:27;;;;;;;41.08;18.83;;;;;;;-4.32;77.91;102054.03;5067225;28;20474;-75
2021/01/19 08:32:56;;;;;;;47.67;21.67;;;;;;;-1.91;72.13;102056.34;5062845;28;20445;-75
2021/01/19 08:35:27;;;;;;;46.70;21.17;;;;;;;-3.74;69.49;102055.38;5059577;28;20071;-75
2021/01/19 08:37:58;;;;;;;45.05;18.95;;;;;;;-1.71;69.54;102049.94;5061128;28;20517;-76
2021/01/19 08:40:29;;;;;;;44.40;20.80;;;;;;;-1.40;69.22;102060.16;5062171;28;20102;-76
2021/01/19 08:42:56;;;;;;;42.55;19.35;;;;;;;-3.70;72.32;102051.69;5058575;28;20464;-75
2021/01/19 08:45:35;;;;;;;39.38;19.48;;;;;;;-3.52;76.00;102058.50;5074070;28;20060;-74
2021/01/19 08:48:02;;;;;;;40.67;20.58;;;;;;;-0.95;65.56;102071.22;5057564;28;20037;-76
2021/01/19 08:50:30;;;;;;;40.40;21.48;;;;;;;-3.72;71.77;102058.75;5053468;28;20032;-75
2021/01/19 08:52:56;;;;;;;47.80;20.08;;;;;;;-4.09;72.05;102070.19;5054081;28;20555;-75
2021/01/19 08:55:26;;;;;;;46.17;20.73;;;;;;;-2.35;70.53;102070.25;5054273;28;20108;-76
2021/01/19 08:57:56;;;;;;;48.80;21.15;;;;;;;-0.32;61.83;102061.91;5053516;28;20465;-75
2021/01/19 09:00:36;;;;;;;47.38;23.40;;;;;;;-3.85;70.75;102062.88;4971535;28;20037;-76
2021/01/19 09:03:15;;;;;;;51.17;23.85;;;;;;;-1.66;68.56;102072.19;5052714;28;20036;-75
2021/01/19 09:05:41;;;;;;;60.13;29.25;;;;;;;-0.43;63.28;102079.22;5049960;28;20085;-76
2021/01/19 09:08:18;;;;;;;86.72;43.30;;;;;;;-2.82;64.95;102073.78;5060059;28;20032;-75
2021/01/19 09:10:44;;;;;;;63.58;33.60;;;;;;;0.09;59.37;102080.94;5072198;28;20028;-75
2021/01/19 09:13:11;;;;;;;62.42;28.15;;;;;;;-1.15;65.58;102074.25;5073178;28;20426;-75
2021/01/19 09:15:44;;;;;;;48.70;24.58;;;;;;;-2.49;65.21;102076.22;5073403;28;20056;-76
2021/01/19 09:18:14;;;;;;;79.35;38.05;;;;;;;-1.63;64.15;102072.00;5071736;28;20132;-75
2021/01/19 09:20:43;;;;;;;59.60;31.67;;;;;;;-0.24;61.31;102070.09;5073157;28;20097;-75
2021/01/19 09:23:17;;;;;;;51.05;24.13;;;;;;;-1.31;64.30;102056.13;5072663;28;20035;-76
2021/01/19 09:25:44;;;;;;;60.20;26.40;;;;;;;0.78;58.82;102060.47;5072401;28;20039;-75
2021/01/19 09:28:11;;;;;;;75.38;28.48;;;;;;;-1.71;65.04;102058.59;5073178;28;20159;-75
2021/01/19 09:30:36;;;;;;;54.92;25.27;;;;;;;0.50;59.47;102056.38;5074116;28;20034;-75
2021/01/19 09:33:08;;;;;;;52.80;25.40;;;;;;;0.55;58.74;102055.09;5072096;28;20439;-76
2021/01/19 09:35:35;;;;;;;51.00;27.08;;;;;;;0.18;59.01;102049.81;5069711;28;20079;-75
2021/01/19 09:38:00;;;;;;;53.85;25.17;;;;;;;-0.12;59.16;102055.38;5069492;28;20121;-75
2021/01/19 09:40:34;;;;;;;53.58;24.83;;;;;;;-1.05;63.59;102058.88;5069371;28;20108;-76
2021/01/19 09:43:12;;;;;;;51.85;21.77;;;;;;;-0.68;78.72;102064.34;5069004;28;20123;-76
2021/01/19 09:45:38;;;;;;;54.47;26.50;;;;;;;-3.39;70.09;102055.25;5055757;28;20289;-76
2021/01/19 09:48:06;;;;;;;61.85;25.50;;;;;;;-3.27;73.08;102052.00;5072964;28;20029;-76
2021/01/19 09:50:31;;;;;;;63.22;26.67;;;;;;;-1.90;69.43;102053.66;5072566;28;20032;-75
2021/01/19 09:52:56;;;;;;;60.20;26.55;;;;;;;-3.13;69.36;102044.28;5072166;28;20049;-76
2021/01/19 09:55:29;;;;;;;66.15;31.13;;;;;;;-2.27;72.68;102041.97;5073260;28;20047;-76
2021/01/19 09:57:58;;;;;;;62.92;29.73;;;;;;;-3.44;74.57;102034.75;5072498;28;20033;-75
2021/01/19 10:00:29;;;;;;;65.13;30.23;;;;;;;-2.63;71.38;102034.56;5072177;28;20393;-76
2021/01/19 10:02:54;;;;;;;61.13;28.05;;;;;;;-2.06;68.94;102032.06;5071565;28;20029;-76
2021/01/19 10:05:23;;;;;;;65.63;30.35;;;;;;;-3.77;72.68;102035.59;5072579;28;20028;-75
2021/01/19 10:07:49;;;;;;;67.68;28.75;;;;;;;-3.76;73.90;102021.69;5071997;28;20040;-76
2021/01/19 10:10:15;;;;;;;62.50;28.95;;;;;;;-3.10;74.31;102027.69;5072031;28;20032;-76
2021/01/19 10:12:43;;;;;;;65.38;28.63;;;;;;;-2.51;70.15;102023.47;5072830;28;20029;-75
2021/01/19 10:15:10;;;;;;;65.22;31.20;;;;;;;-2.59;71.78;102013.50;5072746;28;20037;-75
2021/01/19 10:17:37;;;;;;;72.75;37.00;;;;;;;-3.46;75.38;102011.44;5072684;28;20032;-74
2021/01/19 10:20:10;;;;;;;80.53;36.80;;;;;;;-2.07;72.33;102013.00;5072788;28;20453;-75
2021/01/19 10:22:41;;;;;;;57.03;24.70;;;;;;;-3.66;73.93;102003.03;5071543;28;20029;-75
2021/01/19 10:25:09;;;;;;;63.22;31.20;;;;;;;-2.92;73.37;101999.81;5071726;28;20029;-76
2021/01/19 10:27:40;;;;;;;58.47;24.50;;;;;;;-3.23;80.29;102002.38;5071857;28;20028;-76
2021/01/19 10:30:08;;;;;;;63.00;28.77;;;;;;;-3.85;78.07;101990.19;5065135;28;20037;-76
2021/01/19 10:32:48;;;;;;;74.65;37.38;;;;;;;-3.19;73.98;102000.44;5064545;28;20440;-76
2021/01/19 10:35:24;;;;;;;66.32;31.13;;;;;;;-3.50;74.38;101993.50;5065047;28;20036;-76
2021/01/19 10:37:55;;;;;;;53.38;20.88;;;;;;;-2.21;88.06;101981.78;5058950;28;20503;-75
2021/01/19 10:40:20;;;;;;;55.85;24.15;;;;;;;-3.56;75.83;101988.66;5059812;28;20043;-76
2021/01/19 10:42:46;;;;;;;55.88;25.33;;;;;;;-4.03;76.76;101982.47;5058711;28;20032;-75
2021/01/19 10:45:20;;;;;;;44.80;18.05;;;;;;;-3.28;78.80;101978.41;5067408;28;20465;-75
2021/01/19 10:47:46;;;;;;;64.38;27.83;;;;;;;-4.08;77.69;101975.84;5058202;28;20556;-75
2021/01/19 10:50:20;;;;;;;52.53;22.27;;;;;;;-3.57;78.71;101977.44;5058243;28;20123;-75
2021/01/19 10:53:01;;;;;;;55.28;25.30;;;;;;;-3.85;77.66;101970.25;5058853;28;20041;-76
2021/01/19 10:55:28;;;;;;;54.37;22.50;;;;;;;-3.85;78.15;101969.44;5068723;28;20542;-76
2021/01/19 10:57:58;;;;;;;55.70;25.20;;;;;;;-2.77;79.58;101970.34;5058891;28;20451;-75
2021/01/19 11:00:25;;;;;;;58.85;24.75;;;;;;;-2.62;77.36;101969.44;5061359;28;20055;-75
2021/01/19 11:02:50;;;;;;;49.60;23.52;;;;;;;-1.88;87.67;101965.84;5062015;28;20016;-77
2021/01/19 11:05:16;;;;;;;47.08;21.83;;;;;;;-2.21;76.79;101971.38;5060690;28;20110;-75
2021/01/19 11:07:52;;;;;;;49.22;22.38;;;;;;;-3.06;78.48;101964.19;5066179;28;20477;-76
2021/01/19 11:10:19;;;;;;;46.50;21.77;;;;;;;-3.51;77.42;101968.44;5062797;28;20107;-75
2021/01/19 11:12:45;;;;;;;46.65;17.52;;;;;;;-3.13;75.65;101968.06;5067260;28;20523;-75
2021/01/19 11:15:12;;;;;;;54.92;22.80;;;;;;;-3.00;77.45;101966.44;5065337;28;20032;-76
2021/01/19 11:17:38;;;;;;;54.08;24.35;;;;;;;-2.95;74.49;101968.78;5066100;28;20075;-76